Time;durP1;ratioP1;P1;durP2;ratioP2;P2;SDS_P1;SDS_P2;PMS_P1;PMS_P2;Temp;Humidity;BMP_temperature;BMP_pressure;BME280_temperature;BME280_humidity;BME280_pressure;Samples;Min_cycle;Max_cycle;Signal;HPM_P1;HPM_P2
2023/09/23 00:00:17;;;;;;;1.52;1.00;;;;;;;14.61;nan;99116.00;5043871;28;20206;-78
2023/09/23 00:02:46;;;;;;;2.10;1.23;;;;;;;14.60;nan;99128.34;5045128;28;20674;-78
2023/09/23 00:05:15;;;;;;;1.30;0.77;;;;;;;14.60;nan;99128.34;5042922;28;20444;-78
2023/09/23 00:07:41;;;;;;;1.35;0.80;;;;;;;14.62;nan;99130.88;5041552;28;20574;-78
2023/09/23 00:10:08;;;;;;;1.65;1.10;;;;;;;14.62;nan;99128.22;5047167;28;20209;-78
2023/09/23 00:12:38;;;;;;;0.90;0.80;;;;;;;14.61;nan;99123.91;5044628;28;20201;-78
2023/09/23 00:15:07;;;;;;;1.50;0.90;;;;;;;14.60;nan;99130.16;5043276;28;20206;-78
2023/09/23 00:17:37;;;;;;;3.67;1.20;;;;;;;14.62;nan;99122.09;5043740;28;20205;-79
2023/09/23 00:20:16;;;;;;;2.45;1.20;;;;;;;14.60;nan;99130.16;5041846;28;20201;-78
2023/09/23 00:22:45;;;;;;;1.88;1.10;;;;;;;14.59;nan;99126.69;5043316;28;20209;-78
2023/09/23 00:25:13;;;;;;;0.80;0.80;;;;;;;14.58;nan;99132.94;5039721;28;20441;-78
2023/09/23 00:27:39;;;;;;;1.20;1.10;;;;;;;14.56;nan;99131.41;5047567;28;20280;-77
2023/09/23 00:30:07;;;;;;;1.20;0.93;;;;;;;14.58;nan;99140.03;5043371;28;20244;-78
2023/09/23 00:32:32;;;;;;;1.60;1.00;;;;;;;14.60;nan;99138.09;5024861;28;20663;-78
2023/09/23 00:34:59;;;;;;;1.10;0.90;;;;;;;14.64;nan;99142.16;5023709;28;20212;-78
2023/09/23 00:37:25;;;;;;;1.00;0.90;;;;;;;14.60;nan;99143.38;5037718;28;20402;-78
2023/09/23 00:39:50;;;;;;;1.00;0.80;;;;;;;14.51;nan;99141.50;5043383;28;20213;-78
2023/09/23 00:42:21;;;;;;;1.27;1.03;;;;;;;14.39;nan;99135.47;5043695;28;20449;-78
2023/09/23 00:44:46;;;;;;;0.95;0.85;;;;;;;14.26;nan;99130.44;5026438;28;20213;-78
2023/09/23 00:47:16;;;;;;;1.43;1.20;;;;;;;14.14;nan;99137.59;5038478;28;20194;-78
2023/09/23 00:49:45;;;;;;;3.55;1.10;;;;;;;14.09;nan;99138.97;5039852;28;20492;-78
2023/09/23 00:52:14;;;;;;;2.10;1.00;;;;;;;14.07;nan;99138.25;5023075;28;20189;-78
2023/09/23 00:54:45;;;;;;;2.65;1.25;;;;;;;14.05;nan;99146.31;5042415;28;20461;-78
2023/09/23 00:57:12;;;;;;;1.60;0.85;;;;;;;14.05;nan;99138.41;5020834;28;20193;-78
2023/09/23 00:59:40;;;;;;;1.58;0.90;;;;;;;14.06;nan;99134.78;5041013;28;20784;-78
2023/09/23 01:02:06;;;;;;;2.00;1.00;;;;;;;14.03;nan;99150.88;5042317;28;20211;-78
2023/09/23 01:04:33;;;;;;;1.02;0.80;;;;;;;13.98;nan;99145.16;5044186;28;20202;-78
2023/09/23 01:07:02;;;;;;;2.42;1.10;;;;;;;13.90;nan;99145.81;5039523;28;20705;-78
2023/09/23 01:09:29;;;;;;;1.02;0.93;;;;;;;13.84;nan;99156.91;5036773;28;20317;-77
2023/09/23 01:11:56;;;;;;;1.00;0.80;;;;;;;13.77;nan;99161.03;5032664;28;20237;-78
2023/09/23 01:14:22;;;;;;;2.20;0.95;;;;;;;13.71;nan;99157.06;5038990;28;20201;-78
2023/09/23 01:16:49;;;;;;;1.85;0.80;;;;;;;13.67;nan;99162.78;5039187;28;20240;-78
2023/09/23 01:19:15;;;;;;;0.98;0.90;;;;;;;13.62;nan;99168.41;5035261;28;20559;-78
2023/09/23 01:21:40;;;;;;;1.33;0.83;;;;;;;13.59;nan;99173.97;5038894;28;20698;-78
2023/09/23 01:24:05;;;;;;;2.00;1.00;;;;;;;13.60;nan;99170.34;5044459;28;20211;-78
2023/09/23 01:26:31;;;;;;;2.07;1.03;;;;;;;13.64;nan;99176.22;5039140;28;20232;-78
2023/09/23 01:28:56;;;;;;;4.80;1.20;;;;;;;13.66;nan;99179.53;5025560;28;20291;-78
2023/09/23 01:31:22;;;;;;;4.93;1.20;;;;;;;13.71;nan;99187.91;5041813;28;20214;-78
2023/09/23 01:33:48;;;;;;;2.23;1.10;;;;;;;13.75;nan;99189.34;5041419;28;20736;-78
2023/09/23 01:36:13;;;;;;;1.20;1.10;;;;;;;13.77;nan;99192.72;5039503;28;20459;-77
2023/09/23 01:38:41;;;;;;;1.77;1.00;;;;;;;13.73;nan;99200.03;5036494;28;20471;-77
2023/09/23 01:41:07;;;;;;;1.00;0.90;;;;;;;13.67;nan;99205.81;5042872;28;20204;-78
2023/09/23 01:43:32;;;;;;;1.40;0.90;;;;;;;13.60;nan;99211.72;5040311;28;20209;-78
2023/09/23 01:46:03;;;;;;;3.15;0.85;;;;;;;13.56;nan;99215.59;5035159;28;20415;-78
2023/09/23 01:48:29;;;;;;;2.45;1.42;;;;;;;13.56;nan;99220.88;5017165;28;20198;-78
2023/09/23 01:50:58;;;;;;;1.13;1.00;;;;;;;13.55;nan;99225.28;5038943;28;20555;-77
2023/09/23 01:53:25;;;;;;;2.65;1.00;;;;;;;13.56;nan;99215.59;5021050;28;20205;-78
2023/09/23 01:55:51;;;;;;;3.50;1.13;;;;;;;13.60;nan;99207.28;5040240;28;20710;-78
2023/09/23 01:58:17;;;;;;;2.00;1.13;;;;;;;13.62;nan;99217.72;5038382;28;20194;-78
2023/09/23 02:00:42;;;;;;;0.80;0.80;;;;;;;13.57;nan;99217.25;5034139;28;20206;-78
2023/09/23 02:03:09;;;;;;;2.17;1.70;;;;;;;13.53;nan;99229.03;5040459;28;20178;-78
2023/09/23 02:05:35;;;;;;;1.00;0.90;;;;;;;13.51;nan;99223.88;5023137;28;20236;-78
2023/09/23 02:08:02;;;;;;;1.67;1.10;;;;;;;13.50;nan;99230.97;5039282;28;20216;-77
2023/09/23 02:10:28;;;;;;;1.03;0.80;;;;;;;13.53;nan;99237.81;5026805;28;20232;-78
2023/09/23 02:12:54;;;;;;;1.65;1.08;;;;;;;13.53;nan;99244.84;5021364;28;20190;-78
2023/09/23 02:15:20;;;;;;;1.30;0.83;;;;;;;13.53;nan;99248.34;5042623;28;20241;-77
2023/09/23 02:17:47;;;;;;;2.03;1.10;;;;;;;13.57;nan;99251.56;5003107;28;20713;-78
2023/09/23 02:20:20;;;;;;;2.17;0.90;;;;;;;13.58;nan;99256.72;5018014;28;21046;-77
2023/09/23 02:22:50;;;;;;;3.92;1.05;;;;;;;13.57;nan;99241.84;5027104;28;20680;-78
2023/09/23 02:25:17;;;;;;;0.93;0.80;;;;;;;13.58;nan;99245.31;5039920;28;20212;-78
2023/09/23 02:27:44;;;;;;;1.67;0.90;;;;;;;13.56;nan;99240.19;5043316;28;20197;-77
2023/09/23 02:30:10;;;;;;;0.80;0.80;;;;;;;13.56;nan;99242.00;5041528;28;20241;-77
2023/09/23 02:32:40;;;;;;;2.63;1.33;;;;;;;13.52;nan;99245.84;5022160;28;20209;-77
2023/09/23 02:35:12;;;;;;;1.98;1.02;;;;;;;13.47;nan;99244.41;5037032;28;20295;-78
2023/09/23 02:37:42;;;;;;;2.45;1.13;;;;;;;13.37;nan;99246.13;5040661;28;20223;-77
2023/09/23 02:40:12;;;;;;;6.75;1.90;;;;;;;13.30;nan;99252.84;5022342;28;20194;-78
2023/09/23 02:42:46;;;;;;;1.05;0.95;;;;;;;13.22;nan;99250.78;5019397;28;20566;-78
2023/09/23 02:45:13;;;;;;;0.95;0.88;;;;;;;13.20;nan;99260.63;5039532;28;20181;-77
2023/09/23 02:47:43;;;;;;;1.08;0.80;;;;;;;13.20;nan;99252.69;5017805;28;20616;-77
2023/09/23 02:50:09;;;;;;;1.08;0.82;;;;;;;13.21;nan;99258.84;5022833;28;20691;-78
2023/09/23 02:52:39;;;;;;;2.10;1.17;;;;;;;13.21;nan;99256.19;5039635;28;20829;-77
2023/09/23 02:55:07;;;;;;;4.00;1.23;;;;;;;13.22;nan;99260.50;5040584;28;20221;-78
2023/09/23 02:57:35;;;;;;;1.40;1.30;;;;;;;13.23;nan;99259.53;5018600;28;20853;-79
2023/09/23 03:00:16;;;;;;;1.65;1.00;;;;;;;13.19;nan;99258.13;5035917;28;20213;-77
2023/09/23 03:02:45;;;;;;;1.60;1.00;;;;;;;13.12;nan;99254.28;5042579;28;20382;-76
2023/09/23 03:05:16;;;;;;;2.05;1.30;;;;;;;12.96;nan;99252.88;5045345;28;20189;-77
2023/09/23 03:07:42;;;;;;;2.78;1.30;;;;;;;12.84;nan;99245.94;5039243;28;20422;-77
2023/09/23 03:10:12;;;;;;;1.57;0.93;;;;;;;12.79;nan;99256.00;5041388;28;20383;-76
2023/09/23 03:12:43;;;;;;;3.17;1.30;;;;;;;12.80;nan;99265.59;5020091;28;20458;-77
2023/09/23 03:15:14;;;;;;;1.65;1.00;;;;;;;12.82;nan;99261.03;5032266;28;20218;-76
2023/09/23 03:17:50;;;;;;;2.00;1.40;;;;;;;12.77;nan;99269.31;5031800;28;20465;-77
2023/09/23 03:20:20;;;;;;;2.60;1.33;;;;;;;12.72;nan;99273.22;5018307;28;20419;-77
2023/09/23 03:22:49;;;;;;;3.22;1.73;;;;;;;12.66;nan;99276.34;5044585;28;20199;-76
2023/09/23 03:25:20;;;;;;;3.00;1.20;;;;;;;12.61;nan;99276.72;5037833;28;20446;-77
2023/09/23 03:27:51;;;;;;;3.60;1.75;;;;;;;12.59;nan;99284.75;5045007;28;20196;-77
2023/09/23 03:30:17;;;;;;;1.80;1.70;;;;;;;12.62;nan;99286.31;5022672;28;20494;-77
2023/09/23 03:32:45;;;;;;;1.50;1.20;;;;;;;12.65;nan;99288.69;5041002;28;20200;-76
2023/09/23 03:35:24;;;;;;;1.42;1.15;;;;;;;12.69;nan;99289.28;5018248;28;20232;-77
2023/09/23 03:37:50;;;;;;;2.42;1.38;;;;;;;12.73;nan;99286.31;5026174;28;20628;-76
2023/09/23 03:40:24;;;;;;;2.00;1.08;;;;;;;12.78;nan;99291.22;5021893;28;20205;-77
2023/09/23 03:42:50;;;;;;;3.95;1.45;;;;;;;12.75;nan;99280.94;5034017;28;20204;-77
2023/09/23 03:45:17;;;;;;;1.42;0.95;;;;;;;12.72;nan;99281.13;5023105;28;20366;-77
2023/09/23 03:47:46;;;;;;;2.40;1.65;;;;;;;12.67;nan;99286.78;5034496;28;20198;-77
2023/09/23 03:50:15;;;;;;;1.20;1.10;;;;;;;12.63;nan;99285.34;5024783;28;20495;-77
2023/09/23 03:52:42;;;;;;;1.90;1.50;;;;;;;12.61;nan;99284.63;5019092;28;20799;-77
2023/09/23 03:55:09;;;;;;;1.15;0.95;;;;;;;12.61;nan;99277.56;5038857;28;21200;-77
2023/09/23 03:57:34;;;;;;;2.90;1.58;;;;;;;12.63;nan;99280.06;5043510;28;20725;-77
2023/09/23 04:00:00;;;;;;;2.10;1.50;;;;;;;12.65;nan;99282.59;5042489;28;20220;-77
2023/09/23 04:02:25;;;;;;;3.50;1.20;;;;;;;12.67;nan;99283.31;5024044;28;20182;-77
2023/09/23 04:04:54;;;;;;;1.63;1.10;;;;;;;12.71;nan;99287.38;5035336;28;20204;-76
2023/09/23 04:07:21;;;;;;;3.30;1.45;;;;;;;12.74;nan;99287.97;5021169;28;20439;-76
2023/09/23 04:09:47;;;;;;;1.55;1.35;;;;;;;12.74;nan;99292.41;5037596;28;20205;-77
2023/09/23 04:12:13;;;;;;;2.80;1.20;;;;;;;12.71;nan;99297.91;5043644;28;21236;-77
2023/09/23 04:14:39;;;;;;;1.55;1.17;;;;;;;12.65;nan;99299.25;5040358;28;20589;-77
2023/09/23 04:17:05;;;;;;;1.53;1.03;;;;;;;12.66;nan;99305.34;5036245;28;20198;-77
2023/09/23 04:19:31;;;;;;;2.53;1.70;;;;;;;12.65;nan;99309.78;5039139;28;20205;-77
2023/09/23 04:21:57;;;;;;;1.33;1.23;;;;;;;12.62;nan;99308.22;5042159;28;20206;-76
2023/09/23 04:24:23;;;;;;;2.72;1.10;;;;;;;12.62;nan;99302.94;5045783;28;20263;-77
2023/09/23 04:26:49;;;;;;;2.57;1.70;;;;;;;12.61;nan;99305.72;5043719;28;20565;-76
2023/09/23 04:29:15;;;;;;;2.27;1.37;;;;;;;12.61;nan;99303.09;5042062;28;20671;-76
2023/09/23 04:31:41;;;;;;;1.77;1.30;;;;;;;12.60;nan;99312.75;5041750;28;20848;-76
2023/09/23 04:34:10;;;;;;;1.73;1.40;;;;;;;12.60;nan;99311.94;5045934;28;20464;-77
2023/09/23 04:36:36;;;;;;;1.70;1.60;;;;;;;12.55;nan;99303.53;5036221;28;20455;-76
2023/09/23 04:39:05;;;;;;;2.00;1.30;;;;;;;12.47;nan;99300.66;5038876;28;20198;-77
2023/09/23 04:41:30;;;;;;;1.55;1.00;;;;;;;12.40;nan;99309.03;5041772;28;20791;-77
2023/09/23 04:43:57;;;;;;;1.67;1.20;;;;;;;12.42;nan;99313.31;5038399;28;20198;-76
2023/09/23 04:46:23;;;;;;;2.17;1.10;;;;;;;12.46;nan;99314.78;5042645;28;20185;-76
2023/09/23 04:48:49;;;;;;;2.72;1.35;;;;;;;12.45;nan;99313.09;5053386;28;20256;-76
2023/09/23 04:51:17;;;;;;;6.53;1.00;;;;;;;12.35;nan;99318.22;5055305;28;20550;-78
2023/09/23 04:53:42;;;;;;;1.30;1.05;;;;;;;12.22;nan;99328.00;5045246;28;20938;-76
2023/09/23 04:56:16;;;;;;;1.43;1.20;;;;;;;12.12;nan;99323.44;5040268;28;20685;-76
2023/09/23 04:58:42;;;;;;;1.95;1.20;;;;;;;12.06;nan;99331.78;5049030;28;20736;-76
2023/09/23 05:01:08;;;;;;;1.30;1.10;;;;;;;12.03;nan;99339.91;5045477;28;20201;-76
2023/09/23 05:03:36;;;;;;;1.30;1.03;;;;;;;12.00;nan;99345.41;5042153;28;20757;-76
2023/09/23 05:06:02;;;;;;;3.58;1.25;;;;;;;11.99;nan;99348.13;5043265;28;20408;-75
2023/09/23 05:08:28;;;;;;;2.25;1.45;;;;;;;12.00;nan;99360.34;5048547;28;20197;-76
2023/09/23 05:10:53;;;;;;;2.60;1.63;;;;;;;12.05;nan;99358.22;5044911;28;20255;-76
2023/09/23 05:13:19;;;;;;;1.33;1.10;;;;;;;12.11;nan;99350.69;5045275;28;20204;-76
2023/09/23 05:15:46;;;;;;;1.90;1.10;;;;;;;12.14;nan;99352.28;5041860;28;20214;-75
2023/09/23 05:18:13;;;;;;;1.20;1.10;;;;;;;12.20;nan;99361.50;5038462;28;20682;-76
2023/09/23 05:20:40;;;;;;;2.42;1.30;;;;;;;12.22;nan;99356.97;5042623;28;20224;-75
2023/09/23 05:23:06;;;;;;;1.42;1.30;;;;;;;12.21;nan;99358.78;5043234;28;20189;-75
2023/09/23 05:25:31;;;;;;;5.07;2.77;;;;;;;12.17;nan;99359.94;5042927;28;20200;-75
2023/09/23 05:27:57;;;;;;;3.67;2.33;;;;;;;12.15;nan;99365.34;5044208;28;20471;-76
2023/09/23 05:30:26;;;;;;;3.90;2.23;;;;;;;12.13;nan;99361.97;5040919;28;20229;-75
2023/09/23 05:32:52;;;;;;;3.05;1.10;;;;;;;12.08;nan;99365.91;5026121;28;20447;-75
2023/09/23 05:35:18;;;;;;;2.50;1.20;;;;;;;12.01;nan;99372.56;5037887;28;20669;-76
2023/09/23 05:37:44;;;;;;;2.13;1.10;;;;;;;11.98;nan;99373.63;5024073;28;20209;-75
2023/09/23 05:40:23;;;;;;;1.10;1.00;;;;;;;12.03;nan;99374.13;5037625;28;20478;-76
2023/09/23 05:42:50;;;;;;;1.10;1.00;;;;;;;12.10;nan;99380.63;5039974;28;20209;-76
2023/09/23 05:45:16;;;;;;;5.57;3.08;;;;;;;12.18;nan;99380.91;5042792;28;20194;-76
2023/09/23 05:47:42;;;;;;;4.22;3.58;;;;;;;12.25;nan;99388.34;5048946;28;20229;-76
2023/09/23 05:50:09;;;;;;;3.17;2.20;;;;;;;12.23;nan;99398.13;5044782;28;20244;-75
2023/09/23 05:52:36;;;;;;;1.88;1.30;;;;;;;12.18;nan;99401.13;5040923;28;20214;-75
2023/09/23 05:55:06;;;;;;;1.30;1.20;;;;;;;12.13;nan;99398.00;5043500;28;20260;-75
2023/09/23 05:57:34;;;;;;;1.40;1.30;;;;;;;12.12;nan;99404.19;5044258;28;20209;-76
2023/09/23 06:00:01;;;;;;;2.35;1.73;;;;;;;12.17;nan;99404.69;5038189;28;20197;-75
2023/09/23 06:02:26;;;;;;;1.70;1.20;;;;;;;12.21;nan;99413.22;5038994;28;20478;-76
2023/09/23 06:04:52;;;;;;;2.87;1.20;;;;;;;12.22;nan;99409.63;5044901;28;20229;-76
2023/09/23 06:07:18;;;;;;;1.23;1.03;;;;;;;12.26;nan;99413.72;5044541;28;20226;-76
2023/09/23 06:09:44;;;;;;;7.28;1.40;;;;;;;12.27;nan;99416.25;5040178;28;20217;-76
2023/09/23 06:12:10;;;;;;;1.67;1.15;;;;;;;12.28;nan;99423.19;5040040;28;20189;-76
2023/09/23 06:14:35;;;;;;;1.23;1.13;;;;;;;12.26;nan;99426.88;5041854;28;20201;-76
2023/09/23 06:17:01;;;;;;;2.70;1.30;;;;;;;12.24;nan;99428.81;5046056;28;20463;-76
2023/09/23 06:19:27;;;;;;;1.20;1.10;;;;;;;12.23;nan;99427.94;5037561;28;20630;-76
2023/09/23 06:21:54;;;;;;;1.47;0.80;;;;;;;12.26;nan;99429.50;5043123;28;21038;-76
2023/09/23 06:24:19;;;;;;;1.17;1.00;;;;;;;12.32;nan;99435.19;5038118;28;20854;-76
2023/09/23 06:26:45;;;;;;;4.37;1.47;;;;;;;12.35;nan;99436.75;5042989;28;20197;-76
2023/09/23 06:29:14;;;;;;;1.17;0.83;;;;;;;12.41;nan;99436.28;5041571;28;20954;-76
2023/09/23 06:31:39;;;;;;;2.15;1.17;;;;;;;12.53;nan;99443.28;5021542;28;20263;-77
2023/09/23 06:34:06;;;;;;;1.13;1.03;;;;;;;12.66;nan;99442.38;5046607;28;20584;-76
2023/09/23 06:36:32;;;;;;;1.65;1.10;;;;;;;12.73;nan;99448.88;5038631;28;20241;-76
2023/09/23 06:38:57;;;;;;;2.93;1.40;;;;;;;12.76;nan;99451.28;5042599;28;20620;-76
2023/09/23 06:41:22;;;;;;;2.83;1.00;;;;;;;12.77;nan;99458.22;5042447;28;20702;-76
2023/09/23 06:43:48;;;;;;;1.30;1.20;;;;;;;12.76;nan;99459.19;5037285;28;20197;-76
2023/09/23 06:46:13;;;;;;;1.40;1.27;;;;;;;12.77;nan;99460.84;5038145;28;20186;-76
2023/09/23 06:48:39;;;;;;;2.20;1.00;;;;;;;12.80;nan;99463.28;5045868;28;20205;-76
2023/09/23 06:51:04;;;;;;;1.10;1.00;;;;;;;12.86;nan;99461.97;5037993;28;20213;-76
2023/09/23 06:53:30;;;;;;;1.50;1.23;;;;;;;12.95;nan;99467.38;5038159;28;20262;-76
2023/09/23 06:55:56;;;;;;;1.90;1.10;;;;;;;13.05;nan;99468.34;5040697;28;20205;-76
2023/09/23 06:58:21;;;;;;;2.13;1.20;;;;;;;13.17;nan;99468.38;5039690;28;20867;-77
2023/09/23 07:00:47;;;;;;;1.30;1.20;;;;;;;13.26;nan;99471.19;5000307;28;20464;-76
2023/09/23 07:03:13;;;;;;;1.30;1.07;;;;;;;13.35;nan;99468.81;5038350;28;20452;-76
2023/09/23 07:05:39;;;;;;;2.23;1.20;;;;;;;13.40;nan;99478.03;5046098;28;20627;-76
2023/09/23 07:08:04;;;;;;;1.40;1.27;;;;;;;13.48;nan;99475.63;5039499;28;20703;-76
2023/09/23 07:10:37;;;;;;;1.60;1.07;;;;;;;13.60;nan;99480.91;5036294;28;20566;-76
2023/09/23 07:13:04;;;;;;;2.95;0.90;;;;;;;13.71;nan;99479.09;5039429;28;20210;-76
2023/09/23 07:15:40;;;;;;;1.13;1.02;;;;;;;13.82;nan;99472.16;5043248;28;20313;-76
2023/09/23 07:18:06;;;;;;;2.95;1.38;;;;;;;13.91;nan;99477.53;5042365;28;20259;-76
2023/09/23 07:20:33;;;;;;;2.13;1.50;;;;;;;14.02;nan;99481.13;5040052;28;20232;-76
2023/09/23 07:22:59;;;;;;;1.27;1.17;;;;;;;14.12;nan;99487.34;5042236;28;20197;-76
2023/09/23 07:25:26;;;;;;;2.75;1.40;;;;;;;14.21;nan;99497.19;5037772;28;20771;-77
2023/09/23 07:27:52;;;;;;;2.25;1.15;;;;;;;14.32;nan;99491.88;5041730;28;20240;-76
2023/09/23 07:30:17;;;;;;;1.67;1.17;;;;;;;14.43;nan;99491.00;5041053;28;20252;-76
2023/09/23 07:32:43;;;;;;;1.23;0.80;;;;;;;14.52;nan;99502.63;5041640;28;20197;-76
2023/09/23 07:35:08;;;;;;;3.93;1.27;;;;;;;14.59;nan;99502.03;5036467;28;20212;-76
2023/09/23 07:37:34;;;;;;;2.50;1.67;;;;;;;14.63;nan;99501.75;5036028;28;20697;-77
2023/09/23 07:39:59;;;;;;;1.20;1.10;;;;;;;14.62;nan;99506.22;5040609;28;20436;-77
2023/09/23 07:42:25;;;;;;;1.97;1.10;;;;;;;14.65;nan;99511.25;5039734;28;20409;-76
2023/09/23 07:44:50;;;;;;;1.40;1.30;;;;;;;14.72;nan;99512.44;5036946;28;20197;-77
2023/09/23 07:47:16;;;;;;;4.57;1.37;;;;;;;14.87;nan;99518.25;5043596;28;20197;-76
2023/09/23 07:49:41;;;;;;;2.73;1.60;;;;;;;15.02;nan;99516.97;5042837;28;20220;-77
2023/09/23 07:52:07;;;;;;;8.57;1.80;;;;;;;15.21;nan;99532.16;5036074;28;20410;-76
2023/09/23 07:54:33;;;;;;;3.13;1.90;;;;;;;15.38;nan;99529.88;5037599;28;20271;-76
2023/09/23 07:56:58;;;;;;;1.83;1.37;;;;;;;15.58;nan;99536.13;5043471;28;20241;-77
2023/09/23 07:59:24;;;;;;;1.73;1.20;;;;;;;15.83;nan;99538.38;5037097;28;20538;-78
2023/09/23 08:01:49;;;;;;;3.03;1.47;;;;;;;16.14;nan;99543.63;5038677;28;20200;-76
2023/09/23 08:04:14;;;;;;;1.80;1.40;;;;;;;16.46;nan;99535.47;5036454;28;20575;-77
2023/09/23 08:06:40;;;;;;;3.20;1.50;;;;;;;16.82;nan;99549.09;5044612;28;20437;-77
2023/09/23 08:09:05;;;;;;;2.33;1.40;;;;;;;17.19;nan;99549.22;5040129;28;20194;-77
2023/09/23 08:11:32;;;;;;;1.30;1.10;;;;;;;17.48;nan;99548.34;5041010;28;20314;-77
2023/09/23 08:13:58;;;;;;;2.67;1.25;;;;;;;17.63;nan;99560.19;5036041;28;20232;-77
2023/09/23 08:16:23;;;;;;;1.43;1.07;;;;;;;17.77;nan;99556.25;5034189;28;20260;-77
2023/09/23 08:18:49;;;;;;;1.67;1.47;;;;;;;17.95;nan;99558.97;5041576;28;20442;-76
2023/09/23 08:21:15;;;;;;;1.80;1.10;;;;;;;18.27;nan;99557.72;5051875;28;20215;-77
2023/09/23 08:23:41;;;;;;;4.68;1.38;;;;;;;18.60;nan;99558.91;5045481;28;20191;-77
2023/09/23 08:26:06;;;;;;;5.43;1.60;;;;;;;18.95;nan;99557.28;5045168;28;20277;-77
2023/09/23 08:28:32;;;;;;;2.50;1.30;;;;;;;19.23;nan;99560.72;5041397;28;20263;-77
2023/09/23 08:30:57;;;;;;;1.97;1.00;;;;;;;19.52;nan;99564.91;5042422;28;20221;-76
2023/09/23 08:33:22;;;;;;;1.40;1.00;;;;;;;19.93;nan;99568.69;5046352;28;20280;-77
2023/09/23 08:35:48;;;;;;;1.70;0.97;;;;;;;20.47;nan;99563.09;5039314;28;20669;-77
2023/09/23 08:38:14;;;;;;;1.43;1.10;;;;;;;20.76;nan;99568.00;5045500;28;20201;-77
2023/09/23 08:40:43;;;;;;;1.20;1.00;;;;;;;21.06;nan;99568.38;5044998;28;20214;-77
2023/09/23 08:43:08;;;;;;;1.93;1.37;;;;;;;21.51;nan;99572.41;5040381;28;20987;-77
2023/09/23 08:45:40;;;;;;;2.10;1.10;;;;;;;22.00;nan;99572.28;5042938;28;20927;-77
2023/09/23 08:48:06;;;;;;;1.20;0.90;;;;;;;22.37;nan;99574.34;5042495;28;20194;-77
2023/09/23 08:50:32;;;;;;;3.20;1.13;;;;;;;;;;5039042;28;20509;-77
2023/09/23 08:52:58;;;;;;;1.70;0.90;;;;;;;;;;5046317;28;20462;-77
2023/09/23 08:55:25;;;;;;;2.20;1.10;;;;;;;;;;5039686;28;20499;-77
2023/09/23 08:57:50;;;;;;;1.57;1.00;;;;;;;;;;5040912;28;20209;-77
2023/09/23 09:00:18;;;;;;;1.00;0.90;;;;;;;;;;5043205;28;20542;-77
2023/09/23 09:02:43;;;;;;;1.10;0.80;;;;;;;;;;5040290;28;20222;-78
2023/09/23 09:05:14;;;;;;;2.87;1.00;;;;;;;;;;5043884;28;20979;-77
2023/09/23 09:07:39;;;;;;;2.30;1.03;;;;;;;;;;5043850;28;20209;-77
2023/09/23 09:10:05;;;;;;;1.53;1.20;;;;;;;;;;5037327;28;20432;-77
2023/09/23 09:12:31;;;;;;;1.30;1.10;;;;;;;;;;5042750;28;20404;-77
2023/09/23 09:14:56;;;;;;;1.20;0.80;;;;;;;;;;5040291;28;20197;-78
2023/09/23 09:17:21;;;;;;;1.47;1.10;;;;;;;;;;5041615;28;20190;-78
2023/09/23 09:19:47;;;;;;;1.23;0.87;;;;;;;;;;5046586;28;20683;-78
2023/09/23 09:22:16;;;;;;;1.20;1.00;;;;;;;;;;5046541;28;20201;-78
2023/09/23 09:24:42;;;;;;;1.43;1.00;;;;;;;;;;5046361;28;20972;-79
2023/09/23 09:27:10;;;;;;;1.17;1.00;;;;;;;;;;5040695;28;20692;-77
2023/09/23 09:29:37;;;;;;;1.50;1.00;;;;;;;;;;5038630;28;20457;-78
2023/09/23 09:32:03;;;;;;;1.30;0.90;;;;;;;;;;5039014;28;20468;-78
2023/09/23 09:34:31;;;;;;;1.23;0.90;;;;;;;;;;5040186;28;20946;-78
2023/09/23 09:36:57;;;;;;;1.30;1.00;;;;;;;21.14;nan;99595.94;5041934;28;20448;-77
2023/09/23 09:39:29;;;;;;;0.90;0.90;;;;;;;21.14;nan;99597.75;5040639;28;20680;-78
2023/09/23 09:41:58;;;;;;;1.77;0.90;;;;;;;21.08;nan;99585.06;5042966;28;20754;-77
2023/09/23 09:44:28;;;;;;;1.20;0.80;;;;;;;21.08;nan;99587.72;5043591;28;20487;-78
2023/09/23 09:46:54;;;;;;;0.90;0.80;;;;;;;;;;5047470;28;20416;-78
2023/09/23 09:49:21;;;;;;;1.63;0.80;;;;;;;21.25;nan;99578.72;5043212;28;20485;-77
2023/09/23 09:51:48;;;;;;;1.13;0.80;;;;;;;21.34;nan;99585.75;5043250;28;20445;-81
2023/09/23 09:54:18;;;;;;;1.43;0.80;;;;;;;21.38;nan;99576.41;5051121;28;20431;-81
2023/09/23 09:56:45;;;;;;;1.07;0.70;;;;;;;21.40;nan;99582.44;5049133;28;20453;-81
2023/09/23 09:59:21;;;;;;;1.80;0.80;;;;;;;;;;5047101;28;20422;-81
2023/09/23 10:01:50;;;;;;;1.13;0.80;;;;;;;21.45;nan;99576.59;5046351;28;21100;-81
2023/09/23 10:04:19;;;;;;;0.90;0.80;;;;;;;21.43;nan;99575.91;5049398;28;20476;-82
2023/09/23 10:06:53;;;;;;;1.57;0.80;;;;;;;21.37;nan;99574.75;5046417;28;20415;-81
2023/09/23 10:09:25;;;;;;;1.00;0.80;;;;;;;21.36;nan;99567.72;5043466;28;20672;-80
2023/09/23 10:11:56;;;;;;;1.23;1.00;;;;;;;21.46;nan;99572.06;5045497;28;20519;-81
2023/09/23 10:14:23;;;;;;;1.63;0.80;;;;;;;21.43;nan;99563.38;5051869;28;20475;-82
2023/09/23 10:16:50;;;;;;;1.20;1.10;;;;;;;21.49;nan;99566.38;5047604;28;20482;-82
2023/09/23 10:19:15;;;;;;;1.20;0.80;;;;;;;21.57;nan;99574.38;5049030;28;20425;-83
2023/09/23 10:21:45;;;;;;;1.77;0.80;;;;;;;21.59;nan;99567.03;5049796;28;20453;-82
2023/09/23 10:24:10;;;;;;;2.73;1.20;;;;;;;;;;5049712;28;20437;-82
2023/09/23 10:26:39;;;;;;;3.10;0.90;;;;;;;21.69;nan;99569.53;5047276;28;20419;-82
2023/09/23 10:29:05;;;;;;;0.80;0.70;;;;;;;21.76;nan;99567.84;5046985;28;20232;-81
2023/09/23 10:31:33;;;;;;;2.13;0.70;;;;;;;21.91;nan;99570.66;5049605;28;20426;-82
2023/09/23 10:34:06;;;;;;;1.37;0.83;;;;;;;21.99;nan;99573.31;5051127;28;20844;-82
2023/09/23 10:36:35;;;;;;;1.40;0.70;;;;;;;22.07;nan;99565.25;5044750;28;21152;-82
2023/09/23 10:39:06;;;;;;;1.07;0.97;;;;;;;22.15;nan;99565.22;5041805;28;20434;-82
2023/09/23 10:41:35;;;;;;;1.00;0.90;;;;;;;22.14;nan;99562.69;5048019;28;20424;-82
2023/09/23 10:44:04;;;;;;;2.13;1.30;;;;;;;21.95;nan;99563.94;5049601;28;20502;-81
2023/09/23 10:46:32;;;;;;;1.40;0.80;;;;;;;21.74;nan;99565.34;5045019;28;20450;-82
2023/09/23 10:48:58;;;;;;;1.77;0.90;;;;;;;21.69;nan;99564.19;5044392;28;20459;-82
2023/09/23 10:51:24;;;;;;;2.00;0.80;;;;;;;21.64;nan;99570.03;5050647;28;20615;-81
2023/09/23 10:53:52;;;;;;;2.40;0.80;;;;;;;21.69;nan;99567.69;5052098;28;20421;-81
2023/09/23 10:56:25;;;;;;;2.17;1.10;;;;;;;21.76;nan;99566.00;5046658;28;20210;-84
2023/09/23 10:58:51;;;;;;;1.20;0.87;;;;;;;21.86;nan;99568.50;5050032;28;20443;-82
2023/09/23 11:01:20;;;;;;;2.77;0.93;;;;;;;21.86;nan;99581.84;5057730;28;20452;-82
2023/09/23 11:03:46;;;;;;;1.60;0.97;;;;;;;21.93;nan;99563.28;5047465;28;20414;-83
2023/09/23 11:06:12;;;;;;;1.53;0.93;;;;;;;21.80;nan;99571.84;5051707;28;20477;-81
2023/09/23 11:08:39;;;;;;;0.90;0.70;;;;;;;21.87;nan;99578.16;5056658;28;20211;-82
2023/09/23 11:11:04;;;;;;;1.93;0.90;;;;;;;21.87;nan;99572.81;5055454;28;20459;-82
2023/09/23 11:13:33;;;;;;;1.13;0.80;;;;;;;21.79;nan;99571.03;5052452;28;20608;-81
2023/09/23 11:15:58;;;;;;;1.50;1.10;;;;;;;21.79;nan;99567.50;5047433;28;20461;-82
2023/09/23 11:18:25;;;;;;;1.83;1.20;;;;;;;21.81;nan;99566.31;5048695;28;20502;-82
2023/09/23 11:20:52;;;;;;;0.60;0.60;;;;;;;21.67;nan;99572.38;5048346;28;20228;-82
2023/09/23 11:23:18;;;;;;;1.43;0.83;;;;;;;21.53;nan;99563.22;5046703;28;20459;-83
2023/09/23 11:25:47;;;;;;;1.87;1.10;;;;;;;21.64;nan;99570.03;5045509;28;20513;-81
2023/09/23 11:28:19;;;;;;;1.27;0.87;;;;;;;21.81;nan;99568.16;5048299;28;20454;-81
2023/09/23 11:30:46;;;;;;;2.27;0.90;;;;;;;21.91;nan;99571.47;5026611;28;20477;-82
2023/09/23 11:33:12;;;;;;;2.00;1.20;;;;;;;21.90;nan;99595.72;5023761;28;20422;-81
2023/09/23 11:35:38;;;;;;;2.17;0.70;;;;;;;21.88;nan;99567.31;5026545;28;20479;-82
2023/09/23 11:38:03;;;;;;;1.10;1.00;;;;;;;21.95;nan;99561.28;5031890;28;20263;-82
2023/09/23 11:40:30;;;;;;;2.40;0.80;;;;;;;22.04;nan;99565.59;5026576;28;20452;-81
2023/09/23 11:42:55;;;;;;;5.00;1.40;;;;;;;22.05;nan;99565.41;5029260;28;20445;-82
2023/09/23 11:45:21;;;;;;;4.50;1.30;;;;;;;21.97;nan;99570.78;5023022;28;20757;-82
2023/09/23 11:47:48;;;;;;;2.47;0.83;;;;;;;21.82;nan;99565.34;5028496;28;20344;-81
2023/09/23 11:50:15;;;;;;;0.80;0.77;;;;;;;21.63;nan;99568.38;5027399;28;20212;-81
2023/09/23 11:52:40;;;;;;;2.23;1.10;;;;;;;21.48;nan;99570.06;5027173;28;20450;-81
2023/09/23 11:55:06;;;;;;;1.10;0.80;;;;;;;21.38;nan;99567.56;5017939;28;20441;-82
2023/09/23 11:57:31;;;;;;;1.70;1.00;;;;;;;21.26;nan;99567.03;5011474;28;20294;-82
2023/09/23 11:59:57;;;;;;;1.17;0.97;;;;;;;21.24;nan;99570.88;5028547;28;20630;-81